createdAt,value
2023-04-15T00:00:59.772Z,97203.88
2023-04-15T00:03:27.277Z,97196.66
2023-04-15T00:05:54.234Z,97201.31
2023-04-15T00:08:21.115Z,97195.63
2023-04-15T00:10:48.026Z,97185.78
2023-04-15T00:13:15.495Z,97182.53
2023-04-15T00:15:43.327Z,97156.06
2023-04-15T00:18:10.416Z,97183.09
2023-04-15T00:20:37.736Z,97186.94
2023-04-15T00:23:05.626Z,97162.38
2023-04-15T00:25:32.508Z,97179.59
2023-04-15T00:27:59.419Z,97185.69
2023-04-15T00:30:26.567Z,97181.28
2023-04-15T00:32:53.628Z,97180.00
2023-04-15T00:35:22.102Z,97155.50
2023-04-15T00:37:51.468Z,97167.28
2023-04-15T00:40:21.066Z,97178.72
2023-04-15T00:42:48.303Z,97175.22
2023-04-15T00:45:15.589Z,97171.50
2023-04-15T00:47:44.257Z,97169.84
2023-04-15T00:50:12.726Z,97165.16
2023-04-15T00:52:40.152Z,97141.03
2023-04-15T00:55:07.995Z,97162.72
2023-04-15T00:57:36.229Z,97158.31
2023-04-15T01:00:04.644Z,97162.72
2023-04-15T01:02:32.166Z,97158.75
2023-04-15T01:04:58.975Z,97156.91
2023-04-15T01:07:26.231Z,97155.16
2023-04-15T01:09:54.091Z,97152.69
2023-04-15T01:12:21.181Z,97152.25
2023-04-15T01:14:48.253Z,97153.41
2023-04-15T01:17:15.100Z,97158.06
2023-04-15T01:19:42.345Z,97158.44
2023-04-15T01:22:09.293Z,97158.56
2023-04-15T01:24:38.432Z,97158.56
2023-04-15T01:27:05.846Z,97167.16
2023-04-15T01:29:35.923Z,97139.75
2023-04-15T01:32:02.686Z,97154.81
2023-04-15T01:34:29.473Z,97160.41
2023-04-15T01:36:56.249Z,97135.22
2023-04-15T01:39:22.982Z,97158.88
2023-04-15T01:41:49.633Z,97155.38
2023-04-15T01:44:16.780Z,97156.31
2023-04-15T01:46:43.683Z,97157.31
2023-04-15T01:49:10.412Z,97145.53
2023-04-15T01:51:37.136Z,97153.63
2023-04-15T01:54:04.140Z,97151.13
2023-04-15T01:56:30.954Z,97149.06
2023-04-15T01:58:57.704Z,97155.72
2023-04-15T02:01:25.003Z,97157.91
2023-04-15T02:03:52.288Z,97165.94
2023-04-15T02:06:19.406Z,97154.84
2023-04-15T02:08:46.260Z,97154.75
2023-04-15T02:11:13.165Z,97151.38
2023-04-15T02:13:39.875Z,97154.69
2023-04-15T02:16:16.909Z,97152.81
2023-04-15T02:18:46.255Z,97157.59
2023-04-15T02:21:13.394Z,97153.63
2023-04-15T02:23:40.160Z,97159.59
2023-04-15T02:26:07.161Z,97156.88
2023-04-15T02:28:33.887Z,97163.03
2023-04-15T02:31:01.715Z,97149.19
2023-04-15T02:33:32.323Z,97153.47
2023-04-15T02:36:00.530Z,97154.59
2023-04-15T02:38:27.800Z,97151.91
2023-04-15T02:40:54.852Z,97155.31
2023-04-15T02:43:21.498Z,97155.13
2023-04-15T02:45:48.621Z,97150.75
2023-04-15T02:48:18.058Z,97140.47
2023-04-15T02:50:46.972Z,97138.31
2023-04-15T02:53:15.033Z,97147.13
2023-04-15T02:55:42.864Z,97153.38
2023-04-15T02:58:09.665Z,97152.22
2023-04-15T03:00:36.521Z,97136.28
2023-04-15T03:03:06.202Z,97152.56
2023-04-15T03:05:33.400Z,97154.38
2023-04-15T03:08:03.161Z,97156.16
2023-04-15T03:10:31.700Z,97160.41
2023-04-15T03:12:58.680Z,97156.03
2023-04-15T03:15:25.638Z,97163.91
2023-04-15T03:17:53.889Z,97168.00
2023-04-15T03:20:20.964Z,97160.34
2023-04-15T03:22:48.630Z,97160.81
2023-04-15T03:25:15.734Z,97166.56
2023-04-15T03:27:43.079Z,97171.09
2023-04-15T03:30:12.452Z,97167.16
2023-04-15T03:32:40.370Z,97170.19
2023-04-15T03:35:08.272Z,97171.13
2023-04-15T03:37:35.014Z,97169.50
2023-04-15T03:40:02.440Z,97174.63
2023-04-15T03:42:29.095Z,97170.91
2023-04-15T03:44:55.999Z,97159.94
2023-04-15T03:47:22.995Z,97166.28
2023-04-15T03:49:49.695Z,97170.41
2023-04-15T03:52:16.395Z,97164.16
2023-04-15T03:54:43.075Z,97133.28
2023-04-15T03:57:09.697Z,97160.63
2023-04-15T03:59:36.467Z,97158.09
2023-04-15T04:02:03.379Z,97163.78
2023-04-15T04:04:30.268Z,97167.56
2023-04-15T04:06:57.104Z,97160.16
2023-04-15T04:09:23.811Z,97151.22
2023-04-15T04:11:50.483Z,97166.63
2023-04-15T04:14:18.082Z,97164.81
2023-04-15T04:16:45.379Z,97167.25
2023-04-15T04:19:12.303Z,97165.16
2023-04-15T04:21:39.740Z,97163.38
2023-04-15T04:24:06.614Z,97157.66
2023-04-15T04:26:33.231Z,97177.59
2023-04-15T04:29:00.169Z,97189.38
2023-04-15T04:31:27.320Z,97185.31
2023-04-15T04:33:54.034Z,97184.56
2023-04-15T04:36:20.638Z,97181.66
2023-04-15T04:38:47.350Z,97183.78
2023-04-15T04:41:13.929Z,97184.03
2023-04-15T04:43:40.621Z,97182.00
2023-04-15T04:46:07.375Z,97188.78
2023-04-15T04:48:34.074Z,97188.44
2023-04-15T04:51:00.848Z,97198.91
2023-04-15T04:53:28.086Z,97191.97
2023-04-15T04:55:54.728Z,97195.47
2023-04-15T04:58:21.515Z,97197.13
2023-04-15T05:00:48.192Z,97200.72
2023-04-15T05:03:15.254Z,97207.31
2023-04-15T05:05:42.224Z,97211.72
2023-04-15T05:08:08.989Z,97200.91
2023-04-15T05:10:36.277Z,97188.41
2023-04-15T05:13:03.213Z,97211.09
2023-04-15T05:15:30.119Z,97208.72
2023-04-15T05:17:57.026Z,97213.47
2023-04-15T05:20:23.760Z,97218.09
2023-04-15T05:22:50.786Z,97212.97
2023-04-15T05:25:17.964Z,97213.16
2023-04-15T05:27:44.744Z,97223.66
2023-04-15T05:30:13.401Z,97225.50
2023-04-15T05:32:40.934Z,97231.13
2023-04-15T05:35:08.594Z,97222.31
2023-04-15T05:37:36.291Z,97234.31
2023-04-15T05:40:04.436Z,97232.06
2023-04-15T05:42:31.489Z,97234.50
2023-04-15T05:44:58.367Z,97240.50
2023-04-15T05:47:25.132Z,97240.16
2023-04-15T05:49:51.868Z,97244.72
2023-04-15T05:52:18.567Z,97244.53
2023-04-15T05:54:45.250Z,97236.13
2023-04-15T05:57:12.079Z,97239.03
2023-04-15T05:59:38.948Z,97243.22
2023-04-15T06:02:06.347Z,97246.03
2023-04-15T06:04:33.285Z,97242.78
2023-04-15T06:06:59.993Z,97233.78
2023-04-15T06:09:26.813Z,97247.22
2023-04-15T06:11:53.551Z,97245.75
2023-04-15T06:14:20.287Z,97244.09
2023-04-15T06:16:47.374Z,97244.91
2023-04-15T06:19:14.372Z,97245.53
2023-04-15T06:21:41.974Z,97243.41
2023-04-15T06:24:08.719Z,97232.59
2023-04-15T06:26:35.610Z,97254.91
2023-04-15T06:29:02.477Z,97257.09
2023-04-15T06:31:30.027Z,97260.81
2023-04-15T06:33:56.779Z,97265.84
2023-04-15T06:36:23.471Z,97264.09
2023-04-15T06:38:50.490Z,97272.63
2023-04-15T06:41:18.173Z,97263.28
2023-04-15T06:43:44.908Z,97265.19
2023-04-15T06:46:11.680Z,97268.56
2023-04-15T06:48:38.462Z,97263.56
2023-04-15T06:51:05.330Z,97261.44
2023-04-15T06:53:32.059Z,97268.22
2023-04-15T06:55:58.845Z,97249.06
2023-04-15T06:58:25.788Z,97256.44
2023-04-15T07:00:53.067Z,97267.03
2023-04-15T07:03:19.947Z,97255.63
2023-04-15T07:05:46.655Z,97257.81
2023-04-15T07:08:14.111Z,97267.06
2023-04-15T07:10:41.568Z,97254.81
2023-04-15T07:13:08.946Z,97257.59
2023-04-15T07:15:35.884Z,97245.94
2023-04-15T07:18:02.977Z,97241.97
2023-04-15T07:20:29.833Z,97241.25
2023-04-15T07:22:56.729Z,97239.72
2023-04-15T07:25:23.616Z,97239.72
2023-04-15T07:27:50.546Z,97242.53
2023-04-15T07:30:17.306Z,97247.00
2023-04-15T07:32:44.015Z,97243.47
2023-04-15T07:35:11.646Z,97243.00
2023-04-15T07:37:38.221Z,97223.03
2023-04-15T07:40:07.096Z,97236.81
2023-04-15T07:42:34.650Z,97221.03
2023-04-15T07:45:01.531Z,97243.53
2023-04-15T07:47:28.287Z,97235.56
2023-04-15T07:49:54.974Z,97238.25
2023-04-15T07:52:21.665Z,97239.91
2023-04-15T07:54:48.453Z,97231.16
2023-04-15T07:57:15.024Z,97229.03
2023-04-15T07:59:41.804Z,97238.81
2023-04-15T08:02:08.675Z,97242.88
2023-04-15T08:04:35.697Z,97242.09
2023-04-15T08:07:03.213Z,97232.16
2023-04-15T08:09:29.889Z,97237.81
2023-04-15T08:11:57.110Z,97237.97
2023-04-15T08:14:24.736Z,97239.00
2023-04-15T08:16:51.616Z,97235.19
2023-04-15T08:19:18.495Z,97229.47
2023-04-15T08:21:45.651Z,97221.88
2023-04-15T08:24:13.093Z,97227.06
2023-04-15T08:26:39.705Z,97233.03
2023-04-15T08:29:06.508Z,97224.97
2023-04-15T08:31:33.433Z,97224.50
2023-04-15T08:34:00.474Z,97223.44
2023-04-15T08:36:27.206Z,97218.28
2023-04-15T08:38:54.127Z,97205.00
2023-04-15T08:41:26.173Z,97207.88
2023-04-15T08:44:03.855Z,97213.59
2023-04-15T08:46:32.347Z,97204.22
2023-04-15T08:48:59.172Z,97205.00
2023-04-15T08:51:27.297Z,97202.69
2023-04-15T08:53:54.914Z,97196.13
2023-04-15T08:56:26.030Z,97197.81
2023-04-15T08:58:53.298Z,97201.75
2023-04-15T09:01:20.659Z,97194.69
2023-04-15T09:03:49.474Z,97189.41
2023-04-15T09:06:18.937Z,97189.25
2023-04-15T09:08:45.802Z,97179.09
2023-04-15T09:11:12.442Z,97184.25
2023-04-15T09:13:39.611Z,97181.22
2023-04-15T09:16:08.138Z,97176.06
2023-04-15T09:18:36.723Z,97174.72
2023-04-15T09:21:11.363Z,97165.72
2023-04-15T09:23:39.852Z,97171.69
2023-04-15T09:26:07.100Z,97168.16
2023-04-15T09:28:41.530Z,97166.22
2023-04-15T09:31:08.514Z,97168.63
2023-04-15T09:33:35.208Z,97157.22
2023-04-15T09:36:05.680Z,97164.63
2023-04-15T09:38:33.191Z,97154.91
2023-04-15T09:40:59.997Z,97158.28
2023-04-15T09:43:39.447Z,97151.28
2023-04-15T09:46:06.401Z,97149.16
2023-04-15T09:48:33.125Z,97149.28
2023-04-15T09:51:01.444Z,97147.09
2023-04-15T09:53:30.577Z,97139.94
2023-04-15T09:56:03.021Z,97139.94
2023-04-15T09:58:33.820Z,97142.16
2023-04-15T10:01:03.124Z,97132.13
2023-04-15T10:03:31.604Z,97136.53
2023-04-15T10:06:02.194Z,97129.28
2023-04-15T10:08:32.831Z,97133.50
2023-04-15T10:11:02.011Z,97109.47
2023-04-15T10:13:33.444Z,97124.56
2023-04-15T10:16:11.330Z,97124.69
2023-04-15T10:18:43.930Z,97120.28
2023-04-15T10:21:10.832Z,97116.22
2023-04-15T10:23:38.567Z,97112.53
2023-04-15T10:26:06.207Z,97110.84
2023-04-15T10:28:32.890Z,97109.44
2023-04-15T10:31:00.235Z,97108.47
2023-04-15T10:33:27.715Z,97107.50
2023-04-15T10:35:56.167Z,97104.59
2023-04-15T10:38:43.362Z,97099.44
2023-04-15T10:41:27.966Z,97102.47
2023-04-15T10:44:05.614Z,97098.50
2023-04-15T10:46:42.821Z,97073.91
2023-04-15T10:49:24.877Z,97091.63
2023-04-15T10:51:54.088Z,97066.44
2023-04-15T10:54:26.620Z,97073.88
2023-04-15T10:57:05.991Z,97069.50
2023-04-15T10:59:36.105Z,97064.69
2023-04-15T11:02:07.467Z,97072.53
2023-04-15T11:04:59.284Z,97075.34
2023-04-15T11:07:35.681Z,97073.66
2023-04-15T11:10:04.839Z,97054.31
2023-04-15T11:12:38.873Z,97066.00
2023-04-15T11:15:33.182Z,97071.97
2023-04-15T11:18:14.449Z,97061.78
2023-04-15T11:20:45.120Z,97058.53
2023-04-15T11:23:14.901Z,97048.94
2023-04-15T11:25:43.820Z,97059.00
2023-04-15T11:28:12.779Z,97065.31
2023-04-15T11:30:40.416Z,97061.22
2023-04-15T11:33:09.538Z,97054.59
2023-04-15T11:35:36.452Z,97048.94
2023-04-15T11:38:09.495Z,97047.94
2023-04-15T11:40:37.390Z,97044.03
2023-04-15T11:43:08.119Z,97049.53
2023-04-15T11:45:44.448Z,97054.50
2023-04-15T11:48:12.292Z,97054.34
2023-04-15T11:50:43.329Z,97051.81
2023-04-15T11:53:12.183Z,97055.72
2023-04-15T11:55:49.370Z,97040.13
2023-04-15T11:58:23.458Z,97057.50
2023-04-15T12:01:01.096Z,97050.84
2023-04-15T12:03:30.183Z,97059.78
2023-04-15T12:06:08.913Z,97058.31
2023-04-15T12:09:06.897Z,97062.06
2023-04-15T12:11:35.033Z,97054.28
2023-04-15T12:14:07.700Z,97064.16
2023-04-15T12:16:48.023Z,97053.81
2023-04-15T12:19:37.564Z,97068.06
2023-04-15T12:22:06.658Z,97071.47
2023-04-15T12:24:35.975Z,97070.03
2023-04-15T12:27:11.400Z,97071.94
2023-04-15T12:29:39.189Z,97075.31
2023-04-15T12:32:11.006Z,97073.06
2023-04-15T12:34:40.758Z,97082.94
2023-04-15T12:37:09.773Z,97081.66
2023-04-15T12:39:39.277Z,97063.63
2023-04-15T12:42:06.915Z,97080.66
2023-04-15T12:44:34.415Z,97084.53
2023-04-15T12:47:01.376Z,97085.50
2023-04-15T12:49:29.125Z,97095.72
2023-04-15T12:51:57.665Z,97092.66
2023-04-15T12:54:24.353Z,97090.06
2023-04-15T12:56:51.514Z,97099.66
2023-04-15T12:59:18.778Z,97076.75
2023-04-15T13:01:47.358Z,97102.00
2023-04-15T13:04:15.705Z,97094.34
2023-04-15T13:06:42.621Z,97095.41
2023-04-15T13:09:09.385Z,97115.00
2023-04-15T13:11:36.599Z,97119.03
2023-04-15T13:14:05.679Z,97120.09
2023-04-15T13:16:33.385Z,97124.41
2023-04-15T13:19:01.001Z,97133.72
2023-04-15T13:21:27.867Z,97115.44
2023-04-15T13:23:54.717Z,97145.72
2023-04-15T13:26:21.891Z,97142.94
2023-04-15T13:28:48.548Z,97152.28
2023-04-15T13:31:15.260Z,97177.00
2023-04-15T13:33:42.140Z,97189.72
2023-04-15T13:36:09.092Z,97198.69
2023-04-15T13:38:36.336Z,97210.94
2023-04-15T13:41:02.997Z,97213.56
2023-04-15T13:43:29.716Z,97224.75
2023-04-15T13:45:56.657Z,97217.50
2023-04-15T13:48:23.696Z,97209.13
2023-04-15T13:50:50.538Z,97205.69
2023-04-15T13:53:17.225Z,97200.63
2023-04-15T13:55:44.081Z,97187.22
2023-04-15T13:58:11.227Z,97197.13
2023-04-15T14:00:38.061Z,97190.03
2023-04-15T14:03:05.282Z,97197.47
2023-04-15T14:05:33.079Z,97197.16
2023-04-15T14:08:00.582Z,97194.41
2023-04-15T14:10:27.335Z,97195.44
2023-04-15T14:12:54.180Z,97196.59
2023-04-15T14:15:21.635Z,97189.34
2023-04-15T14:17:48.473Z,97189.94
2023-04-15T14:20:17.175Z,97195.03
2023-04-15T14:22:44.204Z,97193.66
2023-04-15T14:25:15.136Z,97187.28
2023-04-15T14:27:50.529Z,97181.94
2023-04-15T14:30:17.413Z,97177.81
2023-04-15T14:32:44.170Z,97194.03
2023-04-15T14:35:10.911Z,97193.03
2023-04-15T14:37:37.746Z,97183.25
2023-04-15T14:40:04.801Z,97192.88
2023-04-15T14:42:31.482Z,97185.50
2023-04-15T14:44:58.122Z,97189.00
2023-04-15T14:47:24.941Z,97190.97
2023-04-15T14:49:51.708Z,97196.75
2023-04-15T14:52:18.466Z,97198.69
2023-04-15T14:54:45.111Z,97203.09
2023-04-15T14:57:11.815Z,97201.31
2023-04-15T14:59:38.497Z,97196.13
2023-04-15T15:02:05.455Z,97196.97
2023-04-15T15:04:33.460Z,97195.72
2023-04-15T15:07:00.488Z,97190.06
2023-04-15T15:09:27.278Z,97195.63
2023-04-15T15:11:53.928Z,97193.56
2023-04-15T15:14:20.689Z,97195.63
2023-04-15T15:16:47.564Z,97195.16
2023-04-15T15:19:14.252Z,97196.09
2023-04-15T15:21:41.003Z,97195.25
2023-04-15T15:24:07.645Z,97204.28
2023-04-15T15:26:34.386Z,97201.31
2023-04-15T15:29:01.333Z,97194.38
2023-04-15T15:31:28.128Z,97198.84
2023-04-15T15:33:54.884Z,97197.69
2023-04-15T15:36:21.779Z,97203.41
2023-04-15T15:38:48.678Z,97196.97
2023-04-15T15:41:15.758Z,97200.56
2023-04-15T15:43:42.820Z,97186.19
2023-04-15T15:46:09.812Z,97186.72
2023-04-15T15:48:36.879Z,97190.13
2023-04-15T15:51:04.649Z,97193.09
2023-04-15T15:53:31.391Z,97202.81
2023-04-15T15:55:58.137Z,97207.34
2023-04-15T15:58:24.844Z,97199.59
2023-04-15T16:00:51.727Z,97204.66
2023-04-15T16:03:18.634Z,97210.50
2023-04-15T16:05:46.103Z,97205.53
2023-04-15T16:08:12.747Z,97204.88
2023-04-15T16:10:39.466Z,97213.66
2023-04-15T16:13:06.193Z,97218.03
2023-04-15T16:15:33.086Z,97214.34
2023-04-15T16:18:00.340Z,97219.19
2023-04-15T16:20:28.485Z,97212.72
2023-04-15T16:22:58.623Z,97222.22
2023-04-15T16:25:25.770Z,97208.41
2023-04-15T16:28:02.997Z,97221.66
2023-04-15T16:30:35.907Z,97228.06
2023-04-15T16:33:03.782Z,97236.44
2023-04-15T16:35:31.759Z,97231.84
2023-04-15T16:37:59.700Z,97243.13
2023-04-15T16:40:26.590Z,97242.38
2023-04-15T16:42:53.432Z,97244.47
2023-04-15T16:45:20.025Z,97256.75
2023-04-15T16:47:46.809Z,97256.28
2023-04-15T16:50:13.442Z,97245.47
2023-04-15T16:52:40.261Z,97269.00
2023-04-15T16:55:07.164Z,97265.88
2023-04-15T16:58:00.920Z,97267.81
2023-04-15T17:00:20.823Z,97268.13
2023-04-15T17:02:47.630Z,97279.44
2023-04-15T17:05:14.526Z,97274.41
2023-04-15T17:07:41.279Z,97297.22
2023-04-15T17:10:08.448Z,97298.47
2023-04-15T17:12:35.311Z,97300.56
2023-04-15T17:15:02.083Z,97298.91
2023-04-15T17:17:28.789Z,97294.13
2023-04-15T17:19:55.775Z,97309.03
2023-04-15T17:22:22.655Z,97319.41
2023-04-15T17:24:49.339Z,97327.03
2023-04-15T17:27:16.007Z,97321.28
2023-04-15T17:29:42.799Z,97329.19
2023-04-15T17:32:10.948Z,97346.44
2023-04-15T17:34:49.667Z,97339.22
2023-04-15T17:37:17.932Z,97346.75
2023-04-15T17:39:44.685Z,97358.41
2023-04-15T17:42:11.755Z,97363.84
2023-04-15T17:44:38.644Z,97364.81
2023-04-15T17:47:05.584Z,97364.53
2023-04-15T17:49:34.178Z,97374.47
2023-04-15T17:52:01.552Z,97380.81
2023-04-15T17:54:28.327Z,97382.50
2023-04-15T17:56:56.728Z,97390.94
2023-04-15T17:59:23.918Z,97397.59
2023-04-15T18:01:50.893Z,97408.22
2023-04-15T18:04:17.742Z,97412.03
2023-04-15T18:06:44.654Z,97415.50
2023-04-15T18:09:11.497Z,97407.47
2023-04-15T18:11:40.082Z,97414.00
2023-04-15T18:14:07.247Z,97432.22
2023-04-15T18:16:34.370Z,97426.13
2023-04-15T18:19:01.177Z,97441.06
2023-04-15T18:21:28.040Z,97453.72
2023-04-15T18:23:54.776Z,97442.06
2023-04-15T18:26:21.984Z,97466.50
2023-04-15T18:28:48.823Z,97471.03
2023-04-15T18:31:15.730Z,97486.53
2023-04-15T18:33:42.587Z,97489.13
2023-04-15T18:36:10.284Z,97491.31
2023-04-15T18:38:36.993Z,97490.38
2023-04-15T18:41:05.435Z,97494.06
2023-04-15T18:43:32.542Z,97515.56
2023-04-15T18:46:00.134Z,97518.44
2023-04-15T18:48:27.106Z,97533.94
2023-04-15T18:50:54.306Z,97531.38
2023-04-15T18:53:21.727Z,97509.59
2023-04-15T18:55:48.573Z,97543.59
2023-04-15T18:58:16.122Z,97551.22
2023-04-15T19:00:43.930Z,97550.84
2023-04-15T19:03:11.702Z,97562.78
2023-04-15T19:05:38.864Z,97566.22
2023-04-15T19:08:05.680Z,97574.91
2023-04-15T19:10:34.459Z,97577.50
2023-04-15T19:13:01.294Z,97562.94
2023-04-15T19:15:28.752Z,97587.00
2023-04-15T19:17:55.649Z,97598.31
2023-04-15T19:20:22.777Z,97595.97
2023-04-15T19:22:49.460Z,97599.38
2023-04-15T19:25:16.355Z,97609.03
2023-04-15T19:27:43.150Z,97609.47
2023-04-15T19:30:10.115Z,97611.91
2023-04-15T19:32:36.811Z,97612.16
2023-04-15T19:35:04.045Z,97625.19
2023-04-15T19:37:30.766Z,97619.91
2023-04-15T19:39:57.504Z,97626.03
2023-04-15T19:42:24.186Z,97631.34
2023-04-15T19:44:50.887Z,97639.47
2023-04-15T19:47:17.663Z,97625.97
2023-04-15T19:49:44.465Z,97649.53
2023-04-15T19:52:11.159Z,97640.78
2023-04-15T19:54:37.837Z,97666.13
2023-04-15T19:57:04.626Z,97663.69
2023-04-15T19:59:31.361Z,97661.91
2023-04-15T20:01:58.240Z,97663.28
2023-04-15T20:04:26.103Z,97663.56
2023-04-15T20:06:52.859Z,97672.56
2023-04-15T20:09:19.676Z,97681.78
2023-04-15T20:12:45.690Z,97655.47
2023-04-15T20:14:33.146Z,97673.03
2023-04-15T20:16:59.832Z,97679.16
2023-04-15T20:19:27.225Z,97670.03
2023-04-15T20:21:54.393Z,97667.44
2023-04-15T20:24:21.581Z,97692.13
2023-04-15T20:26:48.368Z,97687.91
2023-04-15T20:29:15.362Z,97686.38
2023-04-15T20:31:42.233Z,97689.63
2023-04-15T20:34:11.784Z,97688.63
2023-04-15T20:36:39.088Z,97700.19
2023-04-15T20:39:07.282Z,97704.25
2023-04-15T20:41:34.223Z,97710.25
2023-04-15T20:44:00.950Z,97711.06
2023-04-15T20:46:28.058Z,97721.34
2023-04-15T20:48:55.668Z,97732.31
2023-04-15T20:51:22.562Z,97714.75
2023-04-15T20:53:49.744Z,97721.41
2023-04-15T20:56:16.464Z,97731.06
2023-04-15T20:58:43.141Z,97733.47
2023-04-15T21:01:09.971Z,97730.63
2023-04-15T21:03:36.935Z,97739.19
2023-04-15T21:06:03.857Z,97742.72
2023-04-15T21:08:31.661Z,97748.81
2023-04-15T21:10:58.669Z,97747.19
2023-04-15T21:13:25.583Z,97759.75
2023-04-15T21:15:54.249Z,97765.38
2023-04-15T21:18:22.049Z,97759.78
2023-04-15T21:21:02.196Z,97769.34
2023-04-15T21:23:29.861Z,97768.81
2023-04-15T21:25:57.334Z,97773.25
2023-04-15T21:28:24.122Z,97785.09
2023-04-15T21:30:50.964Z,97782.06
2023-04-15T21:33:20.278Z,97796.25
2023-04-15T21:35:47.055Z,97788.00
2023-04-15T21:38:14.325Z,97785.56
2023-04-15T21:40:41.084Z,97786.38
2023-04-15T21:43:08.353Z,97797.16
2023-04-15T21:45:36.139Z,97787.31
2023-04-15T21:48:07.759Z,97760.75
2023-04-15T21:50:39.474Z,97797.06
2023-04-15T21:53:07.861Z,97795.31
2023-04-15T21:55:34.913Z,97795.81
2023-04-15T21:58:01.736Z,97783.06
2023-04-15T22:00:28.427Z,97792.66
2023-04-15T22:02:55.344Z,97802.72
2023-04-15T22:05:22.494Z,97799.34
2023-04-15T22:07:49.227Z,97798.97
2023-04-15T22:10:15.849Z,97805.19
2023-04-15T22:12:42.676Z,97815.28
2023-04-15T22:15:09.576Z,97807.06
2023-04-15T22:17:36.306Z,97797.94
2023-04-15T22:20:03.633Z,97811.09
2023-04-15T22:22:43.203Z,97817.75
2023-04-15T22:25:11.392Z,97818.25
2023-04-15T22:27:38.063Z,97820.13
2023-04-15T22:30:05.669Z,97818.84
2023-04-15T22:32:32.424Z,97824.97
2023-04-15T22:34:59.254Z,97827.22
2023-04-15T22:37:26.177Z,97827.28
2023-04-15T22:39:53.164Z,97823.66
2023-04-15T22:42:19.872Z,97823.66
2023-04-15T22:44:46.673Z,97824.50
2023-04-15T22:47:13.370Z,97818.16
2023-04-15T22:49:40.434Z,97821.69
2023-04-15T22:52:09.036Z,97820.25
2023-04-15T22:54:37.658Z,97824.59
2023-04-15T22:57:04.447Z,97824.59
2023-04-15T22:59:31.168Z,97824.69
2023-04-15T23:01:59.470Z,97827.06
2023-04-15T23:04:27.103Z,97830.34
2023-04-15T23:06:54.827Z,97829.75
2023-04-15T23:09:22.506Z,97826.06
2023-04-15T23:11:49.773Z,97808.25
2023-04-15T23:14:16.750Z,97835.53
2023-04-15T23:16:43.461Z,97833.84
2023-04-15T23:19:10.248Z,97838.88
2023-04-15T23:21:37.059Z,97840.75
2023-04-15T23:24:03.967Z,97840.38
2023-04-15T23:26:31.205Z,97843.75
2023-04-15T23:28:57.937Z,97846.75
2023-04-15T23:31:24.697Z,97840.84
2023-04-15T23:33:51.494Z,97834.09
2023-04-15T23:36:18.165Z,97842.97
2023-04-15T23:38:44.963Z,97825.19
2023-04-15T23:41:12.106Z,97848.19
2023-04-15T23:43:38.998Z,97844.78
2023-04-15T23:46:05.712Z,97851.38
2023-04-15T23:48:32.650Z,97846.81
2023-04-15T23:51:00.520Z,97845.16
2023-04-15T23:53:29.867Z,97840.16
2023-04-15T23:55:56.842Z,97841.19
2023-04-15T23:58:23.902Z,97851.81
